Roblin, Canada
Current Conditions -  °F | °C
As of 5:00 AM on Sunday 23 Nov 2014 (Local Time) from CYQV Reporting Station
Light Snow Light Snow  
Wind Chill: -10°   Ceiling: 2600
Heat Index: 10°   Visibility: 9mi
Dew Point:   Wind: 24mph
Humidity: 85%   Direction: 20°NNE
Pressure: 29.46"   Gusts: 30mph
Location:  51.23°N, 101.35°W
Report Text: CYQV 231100Z AUTO 02021G26KT 9SM -SN OVC026 M12/M14 A2946 RMK SLP008
Loading
Personal Weather Stations






























Interactive Weather Map New forecast layout! Learn more

10-Day Weather Forecast

Advertisements
Track Severe Weather on mobile